createdAt,value
2019-06-08T00:01:39.717Z,98804.58
2019-06-08T00:04:08.915Z,98819.40
2019-06-08T00:06:38.117Z,98832.17
2019-06-08T00:09:07.467Z,98832.50
2019-06-08T00:11:36.679Z,98834.91
2019-06-08T00:14:05.904Z,98839.44
2019-06-08T00:16:35.049Z,98842.30
2019-06-08T00:19:04.286Z,98847.78
2019-06-08T00:21:33.620Z,98845.48
2019-06-08T00:24:02.796Z,98836.59
2019-06-08T00:26:32.006Z,98827.05
2019-06-08T00:29:01.303Z,98831.79
2019-06-08T00:31:30.486Z,98834.58
2019-06-08T00:33:59.667Z,98842.34
2019-06-08T00:36:28.913Z,98858.84
2019-06-08T00:38:58.127Z,98849.89
2019-06-08T00:41:27.287Z,98861.38
2019-06-08T00:43:56.480Z,98866.88
2019-06-08T00:46:25.783Z,98868.77
2019-06-08T00:48:55.039Z,98872.74
2019-06-08T00:51:25.592Z,98883.39
2019-06-08T00:53:55.171Z,98885.77
2019-06-08T00:56:25.856Z,98882.05
2019-06-08T00:58:55.191Z,98869.80
2019-06-08T01:01:26.334Z,98855.55
2019-06-08T01:03:55.309Z,98866.41
2019-06-08T01:06:25.008Z,98869.94
2019-06-08T01:08:54.492Z,98870.64
2019-06-08T01:11:24.736Z,98879.03
2019-06-08T01:13:53.950Z,98882.80
2019-06-08T01:16:23.142Z,98892.07
2019-06-08T01:18:52.367Z,98884.98
2019-06-08T01:21:21.609Z,98893.92
2019-06-08T01:23:51.015Z,98907.09
2019-06-08T01:26:20.247Z,98927.52
2019-06-08T01:28:49.543Z,98935.06
2019-06-08T01:31:20.274Z,98937.29
2019-06-08T01:33:49.722Z,98946.77
2019-06-08T01:36:18.922Z,98945.03
2019-06-08T01:38:48.191Z,98956.59
2019-06-08T01:41:17.491Z,98959.98
2019-06-08T01:43:46.721Z,98969.16
2019-06-08T01:46:15.892Z,98972.66
2019-06-08T01:48:45.087Z,98969.89
2019-06-08T01:51:14.341Z,98958.55
2019-06-08T01:53:43.522Z,98958.64
2019-06-08T01:56:12.693Z,98959.59
2019-06-08T01:58:41.939Z,98962.45
2019-06-08T02:01:11.210Z,98950.58
2019-06-08T02:03:40.392Z,98953.69
2019-06-08T02:06:09.643Z,98945.59
2019-06-08T02:08:38.872Z,98953.42
2019-06-08T02:11:08.208Z,98960.73
2019-06-08T02:13:37.383Z,98969.78
2019-06-08T02:16:07.407Z,98976.66
2019-06-08T02:18:49.006Z,98975.45
2019-06-08T02:21:08.682Z,98981.63
2019-06-08T02:23:37.919Z,98957.33
2019-06-08T02:26:07.353Z,98968.98
2019-06-08T02:28:36.500Z,98965.67
2019-06-08T02:31:05.686Z,98949.33
2019-06-08T02:33:36.875Z,98954.47
2019-06-08T02:36:06.261Z,98961.25
2019-06-08T02:38:36.133Z,98964.45
2019-06-08T02:41:06.090Z,98964.08
2019-06-08T02:43:36.166Z,98972.77
2019-06-08T02:46:06.353Z,98979.78
2019-06-08T02:48:40.857Z,98977.02
2019-06-08T02:51:08.204Z,98972.66
2019-06-08T02:53:38.847Z,98978.36
2019-06-08T02:56:09.451Z,98976.55
2019-06-08T02:58:41.776Z,98978.03
2019-06-08T03:01:11.078Z,98993.77
2019-06-08T03:03:41.201Z,99002.09
2019-06-08T03:06:10.370Z,99006.70
2019-06-08T03:08:41.421Z,98998.64
2019-06-08T03:11:10.733Z,98990.22
2019-06-08T03:13:42.418Z,98982.79
2019-06-08T03:16:12.058Z,98993.70
2019-06-08T03:18:42.662Z,99003.82
2019-06-08T03:21:11.873Z,99012.61
2019-06-08T03:23:43.167Z,99015.23
2019-06-08T03:26:12.056Z,99021.27
2019-06-08T03:28:42.305Z,99028.09
2019-06-08T03:31:12.344Z,99038.27
2019-06-08T03:33:50.798Z,99047.59
2019-06-08T03:36:12.630Z,99064.33
2019-06-08T03:38:42.556Z,99063.08
2019-06-08T03:41:12.876Z,99055.48
2019-06-08T03:43:42.537Z,99063.39
2019-06-08T03:46:11.688Z,99064.21
2019-06-08T03:48:42.227Z,99063.86
2019-06-08T03:51:11.919Z,99068.63
2019-06-08T03:53:42.648Z,99080.17
2019-06-08T03:56:12.293Z,99079.33
2019-06-08T03:58:42.925Z,99079.97
2019-06-08T04:01:12.631Z,99070.74
2019-06-08T04:03:43.804Z,99082.77
2019-06-08T04:06:13.079Z,99088.01
2019-06-08T04:08:44.896Z,99079.77
2019-06-08T04:11:13.452Z,99076.34
2019-06-08T04:13:44.449Z,99075.75
2019-06-08T04:16:13.598Z,99081.62
2019-06-08T04:18:44.635Z,99092.36
2019-06-08T04:21:13.888Z,99098.05
2019-06-08T04:23:44.897Z,99102.84
2019-06-08T04:26:13.988Z,99097.59
2019-06-08T04:28:44.777Z,99105.06
2019-06-08T04:31:14.101Z,99101.31
2019-06-08T04:33:44.299Z,99100.44
2019-06-08T04:36:13.586Z,99098.85
2019-06-08T04:38:43.337Z,99091.88
2019-06-08T04:41:12.606Z,99104.19
2019-06-08T04:43:42.786Z,99117.88
2019-06-08T04:46:12.524Z,99119.80
2019-06-08T04:48:43.095Z,99121.61
2019-06-08T04:51:12.768Z,99119.33
2019-06-08T04:53:43.240Z,99130.23
2019-06-08T04:56:12.957Z,99125.94
2019-06-08T04:58:44.737Z,99131.74
2019-06-08T05:01:13.474Z,99144.29
2019-06-08T05:03:43.297Z,99156.49
2019-06-08T05:06:12.755Z,99156.38
2019-06-08T05:08:43.158Z,99157.75
2019-06-08T05:11:12.481Z,99158.34
2019-06-08T05:13:43.188Z,99171.84
2019-06-08T05:16:12.555Z,99182.75
2019-06-08T05:18:43.114Z,99187.73
2019-06-08T05:21:12.396Z,99192.53
2019-06-08T05:23:41.530Z,99198.16
2019-06-08T05:26:10.732Z,99199.61
2019-06-08T05:28:41.047Z,99196.32
2019-06-08T05:31:10.491Z,99197.73
2019-06-08T05:33:39.683Z,99213.03
2019-06-08T05:36:09.030Z,99208.41
2019-06-08T05:38:39.382Z,99218.71
2019-06-08T05:41:08.876Z,99221.88
2019-06-08T05:43:39.460Z,99222.94
2019-06-08T05:46:08.881Z,99218.78
2019-06-08T05:48:38.080Z,99220.48
2019-06-08T05:51:07.357Z,99217.45
2019-06-08T05:53:36.744Z,99226.00
2019-06-08T05:56:06.197Z,99230.48
2019-06-08T05:58:35.413Z,99226.66
2019-06-08T06:01:04.601Z,99224.08
2019-06-08T06:03:33.835Z,99223.78
2019-06-08T06:06:03.078Z,99228.77
2019-06-08T06:08:32.331Z,99229.23
2019-06-08T06:11:01.571Z,99223.44
2019-06-08T06:13:30.739Z,99220.56
2019-06-08T06:15:59.921Z,99227.81
2019-06-08T06:18:29.172Z,99227.52
2019-06-08T06:21:10.564Z,99236.34
2019-06-08T06:23:29.559Z,99229.55
2019-06-08T06:25:58.718Z,99239.78
2019-06-08T06:28:28.018Z,99236.12
2019-06-08T06:30:57.212Z,99249.05
2019-06-08T06:33:26.441Z,99247.13
2019-06-08T06:35:55.596Z,99245.54
2019-06-08T06:38:24.954Z,99248.02
2019-06-08T06:40:54.167Z,99248.67
2019-06-08T06:43:23.444Z,99244.38
2019-06-08T06:45:52.598Z,99244.95
2019-06-08T06:48:23.526Z,99241.81
2019-06-08T06:50:52.792Z,99250.62
2019-06-08T06:53:22.138Z,99254.91
2019-06-08T06:55:51.414Z,99256.38
2019-06-08T06:58:20.660Z,99266.86
2019-06-08T07:00:49.970Z,99260.82
2019-06-08T07:03:19.120Z,99267.95
2019-06-08T07:05:48.438Z,99261.13
2019-06-08T07:08:17.694Z,99259.04
2019-06-08T07:10:46.934Z,99255.39
2019-06-08T07:13:16.119Z,99253.91
2019-06-08T07:15:45.304Z,99262.70
2019-06-08T07:18:14.479Z,99261.03
2019-06-08T07:20:43.784Z,99262.01
2019-06-08T07:23:12.994Z,99270.00
2019-06-08T07:25:42.244Z,99261.92
2019-06-08T07:28:11.423Z,99263.42
2019-06-08T07:30:40.647Z,99259.34
2019-06-08T07:33:09.801Z,99262.42
2019-06-08T07:35:39.054Z,99268.11
2019-06-08T07:38:08.348Z,99261.96
2019-06-08T07:40:37.491Z,99268.52
2019-06-08T07:43:06.665Z,99271.39
2019-06-08T07:45:35.929Z,99262.47
2019-06-08T07:48:05.140Z,99273.45
2019-06-08T07:50:34.331Z,99273.28
2019-06-08T07:53:03.570Z,99266.29
2019-06-08T07:55:32.763Z,99267.05
2019-06-08T07:58:02.011Z,99277.97
2019-06-08T08:00:31.544Z,99282.06
2019-06-08T08:03:00.811Z,99267.95
2019-06-08T08:05:30.020Z,99268.56
2019-06-08T08:07:59.261Z,99274.42
2019-06-08T08:10:28.454Z,99279.11
2019-06-08T08:12:58.839Z,99267.27
2019-06-08T08:15:28.361Z,99278.58
2019-06-08T08:17:57.802Z,99270.91
2019-06-08T08:20:26.976Z,99270.80
2019-06-08T08:23:02.411Z,99270.34
2019-06-08T08:28:10.199Z,99265.98
2019-06-08T08:30:39.449Z,99272.80
2019-06-08T08:33:08.718Z,99281.61
2019-06-08T08:35:38.234Z,99280.47
2019-06-08T08:38:07.759Z,99285.97
2019-06-08T08:40:38.777Z,99286.02
2019-06-08T08:43:09.412Z,99278.27
2019-06-08T08:45:40.107Z,99283.65
2019-06-08T08:48:21.473Z,99280.97
2019-06-08T08:50:40.767Z,99283.52
2019-06-08T08:53:10.113Z,99282.61
2019-06-08T08:55:39.326Z,99287.27
2019-06-08T08:58:08.608Z,99291.38
2019-06-08T09:00:41.099Z,99290.36
2019-06-08T09:03:27.898Z,99291.67
2019-06-08T09:05:39.770Z,99291.28
2019-06-08T09:08:09.251Z,99280.33
2019-06-08T09:10:38.592Z,99290.50
2019-06-08T09:13:09.291Z,99298.81
2019-06-08T09:15:39.088Z,99293.67
2019-06-08T09:18:08.389Z,99297.70
2019-06-08T09:20:38.025Z,99296.47
2019-06-08T09:23:15.792Z,99301.28
2019-06-08T09:25:40.665Z,99307.24
2019-06-08T09:28:10.017Z,99310.67
2019-06-08T09:30:39.456Z,99308.11
2019-06-08T09:33:08.682Z,99305.45
2019-06-08T09:35:37.998Z,99307.28
2019-06-08T09:38:08.529Z,99314.23
2019-06-08T09:40:38.695Z,99317.02
2019-06-08T09:43:12.300Z,99310.79
2019-06-08T09:45:39.277Z,99314.68
2019-06-08T09:48:09.434Z,99316.27
2019-06-08T09:50:38.798Z,99307.24
2019-06-08T09:53:23.205Z,99317.67
2019-06-08T09:55:41.424Z,99312.94
2019-06-08T09:58:11.784Z,99317.73
2019-06-08T10:00:41.177Z,99315.20
2019-06-08T10:03:10.316Z,99310.04
2019-06-08T10:05:39.544Z,99312.77
2019-06-08T10:08:09.472Z,99319.56
2019-06-08T10:10:38.867Z,99324.58
2019-06-08T10:13:09.681Z,99315.95
2019-06-08T10:15:39.063Z,99311.55
2019-06-08T10:18:08.407Z,99312.84
2019-06-08T10:20:38.402Z,99310.16
2019-06-08T10:23:26.798Z,99312.03
2019-06-08T10:25:38.668Z,99314.61
2019-06-08T10:28:14.060Z,99316.46
2019-06-08T10:30:38.955Z,99309.88
2019-06-08T10:33:10.131Z,99316.13
2019-06-08T10:35:39.542Z,99309.33
2019-06-08T10:38:11.887Z,99301.41
2019-06-08T10:41:06.647Z,99307.03
2019-06-08T10:43:30.706Z,99306.36
2019-06-08T10:46:06.821Z,99303.62
2019-06-08T10:48:31.198Z,99302.78
2019-06-08T10:51:02.249Z,99302.78
2019-06-08T10:53:45.161Z,99304.46
2019-06-08T10:56:03.417Z,99301.72
2019-06-08T10:58:33.428Z,99300.27
2019-06-08T11:01:04.754Z,99292.98
2019-06-08T11:03:33.562Z,99306.57
2019-06-08T11:06:04.412Z,99296.54
2019-06-08T11:08:33.788Z,99300.83
2019-06-08T11:11:04.646Z,99288.55
2019-06-08T11:13:33.935Z,99300.72
2019-06-08T11:16:04.424Z,99289.97
2019-06-08T11:18:34.442Z,99289.23
2019-06-08T11:21:05.809Z,99281.56
2019-06-08T11:23:34.713Z,99291.18
2019-06-08T11:26:11.133Z,99290.89
2019-06-08T11:28:34.981Z,99296.98
2019-06-08T11:31:05.948Z,99301.20
2019-06-08T11:33:35.468Z,99286.16
2019-06-08T11:36:07.213Z,99279.53
2019-06-08T11:38:38.120Z,99281.84
2019-06-08T11:41:10.217Z,99279.33
2019-06-08T11:43:38.131Z,99286.38
2019-06-08T11:46:08.431Z,99288.79
2019-06-08T11:48:41.276Z,99284.48
2019-06-08T11:51:10.631Z,99274.89
2019-06-08T11:53:40.071Z,99269.81
2019-06-08T11:56:11.648Z,99271.34
2019-06-08T11:58:40.453Z,99277.00
2019-06-08T12:01:13.801Z,99283.18
2019-06-08T12:03:41.587Z,99273.38
2019-06-08T12:06:12.981Z,99261.65
2019-06-08T12:08:41.685Z,99276.09
2019-06-08T12:11:17.201Z,99277.70
2019-06-08T12:13:41.790Z,99283.92
2019-06-08T12:16:18.063Z,99279.95
2019-06-08T12:18:41.957Z,99279.74
2019-06-08T12:21:13.285Z,99278.73
2019-06-08T12:23:43.323Z,99275.35
2019-06-08T12:26:12.628Z,99271.27
2019-06-08T12:28:41.841Z,99264.17
2019-06-08T12:31:16.822Z,99280.25
2019-06-08T12:33:42.184Z,99272.69
2019-06-08T12:36:12.675Z,99267.05
2019-06-08T12:38:42.463Z,99262.01
2019-06-08T12:41:12.698Z,99256.31
2019-06-08T12:43:42.810Z,99256.45
2019-06-08T12:46:13.372Z,99257.89
2019-06-08T12:48:43.311Z,99253.06
2019-06-08T12:51:13.638Z,99252.19
2019-06-08T12:53:43.575Z,99258.08
2019-06-08T12:56:13.562Z,99269.63
2019-06-08T12:58:44.153Z,99272.31
2019-06-08T13:01:14.551Z,99271.61
2019-06-08T13:03:43.848Z,99271.61
2019-06-08T13:06:14.037Z,99267.36
2019-06-08T13:08:43.307Z,99266.17
2019-06-08T13:11:12.506Z,99264.36
2019-06-08T13:13:41.741Z,99266.38
2019-06-08T13:16:10.908Z,99269.39
2019-06-08T13:18:40.797Z,99277.89
2019-06-08T13:21:21.765Z,99278.80
2019-06-08T13:23:41.582Z,99271.94
2019-06-08T13:26:11.519Z,99272.88
2019-06-08T13:28:41.753Z,99271.28
2019-06-08T13:31:14.344Z,99262.20
2019-06-08T13:33:42.053Z,99260.94
2019-06-08T13:36:12.323Z,99271.80
2019-06-08T13:38:41.573Z,99269.94
2019-06-08T13:41:10.989Z,99273.23
2019-06-08T13:43:40.546Z,99276.22
2019-06-08T13:46:10.149Z,99273.03
2019-06-08T13:48:39.349Z,99273.11
2019-06-08T13:51:11.931Z,99271.38
2019-06-08T13:53:39.707Z,99270.90
2019-06-08T13:56:08.940Z,99265.08
2019-06-08T13:58:38.393Z,99269.53
2019-06-08T14:03:51.230Z,99265.22
2019-06-08T14:06:21.811Z,99272.61
2019-06-08T14:08:51.575Z,99271.03
2019-06-08T14:11:22.268Z,99269.05
2019-06-08T14:13:52.028Z,99268.38
2019-06-08T14:16:23.289Z,99271.48
2019-06-08T14:18:52.388Z,99268.78
2019-06-08T14:21:29.438Z,99266.03
2019-06-08T14:23:52.773Z,99279.56
2019-06-08T14:26:23.202Z,99278.72
2019-06-08T14:28:53.153Z,99271.14
2019-06-08T14:31:23.968Z,99265.63
2019-06-08T14:33:53.305Z,99272.80
2019-06-08T14:36:24.097Z,99271.80
2019-06-08T14:38:53.801Z,99274.98
2019-06-08T14:41:23.099Z,99265.34
2019-06-08T14:43:52.403Z,99271.05
2019-06-08T14:46:23.174Z,99265.65
2019-06-08T14:48:52.792Z,99270.41
2019-06-08T14:51:24.435Z,99265.75
2019-06-08T14:53:53.668Z,99276.56
2019-06-08T14:56:23.003Z,99275.11
2019-06-08T14:58:52.249Z,99272.83
2019-06-08T15:01:23.906Z,99271.55
2019-06-08T15:03:52.953Z,99267.75
2019-06-08T15:06:23.304Z,99263.13
2019-06-08T15:08:52.450Z,99252.73
2019-06-08T15:11:21.707Z,99252.39
2019-06-08T15:13:50.930Z,99254.06
2019-06-08T15:16:20.185Z,99250.71
2019-06-08T15:18:49.372Z,99249.39
2019-06-08T15:21:21.247Z,99253.71
2019-06-08T15:23:49.672Z,99251.83
2019-06-08T15:26:28.153Z,99254.10
2019-06-08T15:28:50.269Z,99257.10
2019-06-08T15:31:19.534Z,99251.63
2019-06-08T15:33:48.754Z,99245.87
2019-06-08T15:36:20.512Z,99248.59
2019-06-08T15:38:48.951Z,99242.98
2019-06-08T15:41:21.416Z,99247.46
2019-06-08T15:43:49.340Z,99236.59
2019-06-08T15:46:18.603Z,99234.58
2019-06-08T15:48:48.520Z,99233.50
2019-06-08T15:51:18.021Z,99234.19
2019-06-08T15:53:47.715Z,99237.35
2019-06-08T15:56:18.678Z,99231.75
2019-06-08T15:58:48.717Z,99228.88
2019-06-08T16:01:17.998Z,99230.52
2019-06-08T16:03:47.262Z,99228.52
2019-06-08T16:06:16.487Z,99234.31
2019-06-08T16:08:46.028Z,99234.36
2019-06-08T16:11:15.560Z,99233.78
2019-06-08T16:13:44.995Z,99234.84
2019-06-08T16:16:14.217Z,99235.73
2019-06-08T16:18:43.470Z,99232.63
2019-06-08T16:21:12.704Z,99235.55
2019-06-08T16:23:41.892Z,99233.35
2019-06-08T16:26:11.067Z,99235.66
2019-06-08T16:28:40.308Z,99230.63
2019-06-08T16:31:09.542Z,99234.06
2019-06-08T16:33:39.747Z,99225.63
2019-06-08T16:36:08.999Z,99231.55
2019-06-08T16:38:39.150Z,99230.53
2019-06-08T16:41:08.320Z,99230.53
2019-06-08T16:43:37.631Z,99232.55
2019-06-08T16:46:06.825Z,99228.20
2019-06-08T16:48:36.377Z,99234.59
2019-06-08T16:51:05.542Z,99236.28
2019-06-08T16:53:35.891Z,99242.89
2019-06-08T16:56:05.388Z,99240.25
2019-06-08T16:58:36.102Z,99242.02
2019-06-08T17:01:06.458Z,99241.39
2019-06-08T17:03:36.941Z,99244.99
2019-06-08T17:06:06.332Z,99241.75
2019-06-08T17:08:38.746Z,99248.34
2019-06-08T17:11:07.204Z,99250.25
2019-06-08T17:13:36.518Z,99247.35
2019-06-08T17:16:05.908Z,99247.84
2019-06-08T17:18:36.231Z,99254.91
2019-06-08T17:21:05.852Z,99249.02
2019-06-08T17:23:36.493Z,99247.52
2019-06-08T17:26:06.597Z,99245.69
2019-06-08T17:28:37.183Z,99246.43
2019-06-08T17:31:06.467Z,99242.95
2019-06-08T17:33:35.668Z,99239.25
2019-06-08T17:36:04.870Z,99244.00
2019-06-08T17:38:34.122Z,99240.28
2019-06-08T17:41:03.314Z,99248.36
2019-06-08T17:43:32.490Z,99246.15
2019-06-08T17:46:01.743Z,99246.32
2019-06-08T17:48:32.374Z,99248.38
2019-06-08T17:51:01.728Z,99247.34
2019-06-08T17:53:31.136Z,99251.55
2019-06-08T17:56:00.503Z,99254.09
2019-06-08T17:58:29.726Z,99249.62
2019-06-08T18:00:59.222Z,99247.37
2019-06-08T18:03:28.328Z,99250.16
2019-06-08T18:05:58.127Z,99245.91
2019-06-08T18:08:28.240Z,99244.91
2019-06-08T18:10:57.718Z,99245.95
2019-06-08T18:13:27.317Z,99256.97
2019-06-08T18:15:57.607Z,99256.70
2019-06-08T18:18:28.269Z,99259.72
2019-06-08T18:20:58.099Z,99267.03
2019-06-08T18:23:27.925Z,99263.39
2019-06-08T18:25:58.154Z,99264.48
2019-06-08T18:28:28.205Z,99267.02
2019-06-08T18:30:58.188Z,99263.66
2019-06-08T18:33:27.729Z,99263.84
2019-06-08T18:35:57.654Z,99261.11
2019-06-08T18:38:27.414Z,99267.25
2019-06-08T18:40:57.485Z,99264.64
2019-06-08T18:43:27.939Z,99263.02
2019-06-08T18:45:57.729Z,99274.23
2019-06-08T18:48:28.187Z,99273.94
2019-06-08T18:50:57.478Z,99271.47
2019-06-08T18:53:27.215Z,99277.31
2019-06-08T18:55:58.194Z,99278.95
2019-06-08T18:58:28.026Z,99279.27
2019-06-08T19:00:57.580Z,99286.33
2019-06-08T19:03:28.260Z,99284.67
2019-06-08T19:05:58.444Z,99290.02
2019-06-08T19:08:28.193Z,99295.11
2019-06-08T19:10:57.715Z,99301.51
2019-06-08T19:13:27.197Z,99305.78
2019-06-08T19:15:59.576Z,99306.31
2019-06-08T19:18:29.338Z,99303.50
2019-06-08T19:20:58.395Z,99312.77
2019-06-08T19:23:28.061Z,99309.01
2019-06-08T19:25:57.897Z,99308.35
2019-06-08T19:28:35.873Z,99309.31
2019-06-08T19:30:59.304Z,99311.58
2019-06-08T19:33:28.712Z,99319.20
2019-06-08T19:35:58.452Z,99320.53
2019-06-08T19:38:28.560Z,99323.22
2019-06-08T19:41:00.238Z,99323.69
2019-06-08T19:43:29.227Z,99328.62
2019-06-08T19:45:58.593Z,99335.89
2019-06-08T19:48:31.107Z,99333.08
2019-06-08T19:50:58.967Z,99332.47
2019-06-08T19:53:28.713Z,99341.97
2019-06-08T19:55:58.251Z,99341.45
2019-06-08T19:58:28.311Z,99343.10
2019-06-08T20:00:58.749Z,99342.34
2019-06-08T20:03:28.189Z,99342.78
2019-06-08T20:05:57.416Z,99345.75
2019-06-08T20:08:28.577Z,99347.64
2019-06-08T20:10:57.619Z,99351.01
2019-06-08T20:13:26.852Z,99347.09
2019-06-08T20:15:59.590Z,99357.92
2019-06-08T20:18:27.941Z,99351.14
2019-06-08T20:20:58.625Z,99360.69
2019-06-08T20:23:28.136Z,99364.91
2019-06-08T20:26:00.612Z,99365.61
2019-06-08T20:28:29.212Z,99368.20
2019-06-08T20:30:59.589Z,99368.70
2019-06-08T20:33:28.901Z,99369.67
2019-06-08T20:35:58.625Z,99367.91
2019-06-08T20:38:37.199Z,99365.97
2019-06-08T20:40:58.927Z,99367.38
2019-06-08T20:43:28.163Z,99369.37
2019-06-08T20:45:57.603Z,99363.17
2019-06-08T20:48:27.502Z,99365.28
2019-06-08T20:50:57.286Z,99364.50
2019-06-08T20:53:28.279Z,99373.95
2019-06-08T20:55:57.653Z,99374.97
2019-06-08T20:58:28.347Z,99385.10
2019-06-08T21:00:57.786Z,99387.05
2019-06-08T21:12:58.849Z,99393.22
2019-06-08T21:15:28.205Z,99396.91
2019-06-08T21:17:57.647Z,99395.57
2019-06-08T21:20:28.264Z,99390.69
2019-06-08T21:22:59.622Z,99389.61
2019-06-08T21:25:28.483Z,99389.66
2019-06-08T21:27:58.546Z,99388.80
2019-06-08T21:30:28.483Z,99400.32
2019-06-08T21:33:00.563Z,99402.20
2019-06-08T21:35:29.049Z,99407.61
2019-06-08T21:38:01.015Z,99410.72
2019-06-08T21:40:29.172Z,99413.52
2019-06-08T21:43:01.102Z,99406.29
2019-06-08T21:45:29.750Z,99404.20
2019-06-08T21:48:00.504Z,99415.20
2019-06-08T21:50:29.743Z,99422.13
2019-06-08T21:53:00.421Z,99425.52
2019-06-08T21:55:29.724Z,99421.34
2019-06-08T21:58:01.484Z,99426.91
2019-06-08T22:00:39.039Z,99428.80
2019-06-08T22:03:02.225Z,99427.13
2019-06-08T22:05:31.471Z,99423.98
2019-06-08T22:08:00.723Z,99427.16
2019-06-08T22:10:29.926Z,99425.19
2019-06-08T22:13:00.960Z,99422.94
2019-06-08T22:15:30.422Z,99429.67
2019-06-08T22:18:01.200Z,99428.38
2019-06-08T22:20:30.758Z,99435.98
2019-06-08T22:23:00.968Z,99440.34
2019-06-08T22:25:33.214Z,99442.28
2019-06-08T22:28:01.309Z,99437.41
2019-06-08T22:30:39.271Z,99430.29
2019-06-08T22:33:01.657Z,99440.58
2019-06-08T22:35:30.897Z,99439.53
2019-06-08T22:38:00.960Z,99438.69
2019-06-08T22:40:30.276Z,99436.98
2019-06-08T22:43:00.861Z,99442.75
2019-06-08T22:45:30.155Z,99437.41
2019-06-08T22:48:00.909Z,99455.23
2019-06-08T22:50:30.283Z,99454.22
2019-06-08T22:53:01.066Z,99447.03
2019-06-08T22:55:30.533Z,99445.97
2019-06-08T22:58:01.483Z,99442.77
2019-06-08T23:00:30.728Z,99448.73
2019-06-08T23:03:02.755Z,99428.89
2019-06-08T23:05:30.925Z,99430.20
2019-06-08T23:08:03.562Z,99437.72
2019-06-08T23:10:31.050Z,99434.20
2019-06-08T23:13:02.309Z,99442.02
2019-06-08T23:15:31.258Z,99431.45
2019-06-08T23:18:02.411Z,99431.64
2019-06-08T23:20:31.477Z,99433.22
2019-06-08T23:23:01.559Z,99437.44
2019-06-08T23:25:31.790Z,99443.38
2019-06-08T23:28:03.176Z,99439.63
2019-06-08T23:30:32.146Z,99431.88
2019-06-08T23:33:04.260Z,99427.59
2019-06-08T23:35:56.707Z,99428.33
2019-06-08T23:38:04.978Z,99427.67
2019-06-08T23:40:34.191Z,99430.77
2019-06-08T23:43:04.267Z,99432.57
2019-06-08T23:45:33.444Z,99437.31
2019-06-08T23:48:02.875Z,99441.45
2019-06-08T23:50:32.096Z,99430.63
2019-06-08T23:53:02.302Z,99433.14
2019-06-08T23:55:31.571Z,99443.15
2019-06-08T23:58:01.516Z,99440.34
